sensor_id;sensor_type;location;lat;lon;timestamp;temperature;humidity
40374;DHT22;26079;45.958;12.492;2023-09-30T00:01:09;16.10;99.90
40374;DHT22;26079;45.958;12.492;2023-09-30T00:03:36;16.20;99.90
40374;DHT22;26079;45.958;12.492;2023-09-30T00:06:01;16.20;99.90
40374;DHT22;26079;45.958;12.492;2023-09-30T00:08:27;16.20;99.90
40374;DHT22;26079;45.958;12.492;2023-09-30T00:10:53;16.20;99.90
40374;DHT22;26079;45.958;12.492;2023-09-30T00:13:20;16.20;99.90
40374;DHT22;26079;45.958;12.492;2023-09-30T00:15:46;16.20;99.90
40374;DHT22;26079;45.958;12.492;2023-09-30T00:18:12;16.10;99.90
40374;DHT22;26079;45.958;12.492;2023-09-30T00:20:39;16.10;99.90
40374;DHT22;26079;45.958;12.492;2023-09-30T00:23:05;16.10;99.90
40374;DHT22;26079;45.958;12.492;2023-09-30T00:25:32;16.00;99.90
40374;DHT22;26079;45.958;12.492;2023-09-30T00:27:57;15.90;99.90
40374;DHT22;26079;45.958;12.492;2023-09-30T00:30:23;15.80;99.90
40374;DHT22;26079;45.958;12.492;2023-09-30T00:32:49;15.80;99.90
40374;DHT22;26079;45.958;12.492;2023-09-30T00:35:15;15.90;99.90
40374;DHT22;26079;45.958;12.492;2023-09-30T00:37:42;15.90;99.90
40374;DHT22;26079;45.958;12.492;2023-09-30T00:40:08;16.00;99.90
40374;DHT22;26079;45.958;12.492;2023-09-30T00:42:38;16.00;99.90
40374;DHT22;26079;45.958;12.492;2023-09-30T00:45:05;16.10;99.90
40374;DHT22;26079;45.958;12.492;2023-09-30T00:47:31;16.20;99.90
40374;DHT22;26079;45.958;12.492;2023-09-30T00:49:59;16.20;99.90
40374;DHT22;26079;45.958;12.492;2023-09-30T00:52:24;16.30;99.90
40374;DHT22;26079;45.958;12.492;2023-09-30T00:54:50;16.40;99.90
40374;DHT22;26079;45.958;12.492;2023-09-30T00:57:18;16.40;99.70
40374;DHT22;26079;45.958;12.492;2023-09-30T00:59:45;16.40;99.90
40374;DHT22;26079;45.958;12.492;2023-09-30T01:02:10;16.40;99.90
40374;DHT22;26079;45.958;12.492;2023-09-30T01:04:36;16.40;99.90
40374;DHT22;26079;45.958;12.492;2023-09-30T01:07:03;16.40;99.90
40374;DHT22;26079;45.958;12.492;2023-09-30T01:09:30;16.50;99.90
40374;DHT22;26079;45.958;12.492;2023-09-30T01:11:56;16.50;99.90
40374;DHT22;26079;45.958;12.492;2023-09-30T01:14:29;16.50;99.60
40374;DHT22;26079;45.958;12.492;2023-09-30T01:16:55;16.50;99.90
40374;DHT22;26079;45.958;12.492;2023-09-30T01:19:21;16.50;99.90
40374;DHT22;26079;45.958;12.492;2023-09-30T01:21:54;16.50;99.90
40374;DHT22;26079;45.958;12.492;2023-09-30T01:24:24;16.50;99.90
40374;DHT22;26079;45.958;12.492;2023-09-30T01:26:50;16.50;99.90
40374;DHT22;26079;45.958;12.492;2023-09-30T01:29:16;16.50;99.90
40374;DHT22;26079;45.958;12.492;2023-09-30T01:31:42;16.50;99.90
40374;DHT22;26079;45.958;12.492;2023-09-30T01:34:08;16.50;99.90
40374;DHT22;26079;45.958;12.492;2023-09-30T01:36:36;16.50;99.90
40374;DHT22;26079;45.958;12.492;2023-09-30T01:39:02;16.50;99.90
40374;DHT22;26079;45.958;12.492;2023-09-30T01:41:28;16.40;99.90
40374;DHT22;26079;45.958;12.492;2023-09-30T01:43:54;16.40;99.90
40374;DHT22;26079;45.958;12.492;2023-09-30T01:46:19;16.40;99.90
40374;DHT22;26079;45.958;12.492;2023-09-30T01:48:45;16.20;99.90
40374;DHT22;26079;45.958;12.492;2023-09-30T01:51:11;16.10;99.90
40374;DHT22;26079;45.958;12.492;2023-09-30T01:53:36;16.00;99.90
40374;DHT22;26079;45.958;12.492;2023-09-30T01:56:02;16.00;99.90
40374;DHT22;26079;45.958;12.492;2023-09-30T01:58:28;16.00;99.90
40374;DHT22;26079;45.958;12.492;2023-09-30T02:00:54;15.90;99.90
40374;DHT22;26079;45.958;12.492;2023-09-30T02:03:27;15.90;99.90
40374;DHT22;26079;45.958;12.492;2023-09-30T02:05:54;15.80;99.90
40374;DHT22;26079;45.958;12.492;2023-09-30T02:08:20;15.80;99.90
40374;DHT22;26079;45.958;12.492;2023-09-30T02:10:46;15.70;99.90
40374;DHT22;26079;45.958;12.492;2023-09-30T02:13:12;15.70;99.90
40374;DHT22;26079;45.958;12.492;2023-09-30T02:15:40;15.70;99.90
40374;DHT22;26079;45.958;12.492;2023-09-30T02:18:06;15.70;99.90
40374;DHT22;26079;45.958;12.492;2023-09-30T02:20:32;15.70;99.90
40374;DHT22;26079;45.958;12.492;2023-09-30T02:22:59;15.70;99.90
40374;DHT22;26079;45.958;12.492;2023-09-30T02:25:25;15.70;99.90
40374;DHT22;26079;45.958;12.492;2023-09-30T02:27:51;15.60;99.90
40374;DHT22;26079;45.958;12.492;2023-09-30T02:30:16;15.50;99.90
40374;DHT22;26079;45.958;12.492;2023-09-30T02:32:43;15.40;99.90
40374;DHT22;26079;45.958;12.492;2023-09-30T02:35:11;15.40;99.90
40374;DHT22;26079;45.958;12.492;2023-09-30T02:37:37;15.30;99.90
40374;DHT22;26079;45.958;12.492;2023-09-30T02:40:04;15.30;99.90
40374;DHT22;26079;45.958;12.492;2023-09-30T02:42:35;15.30;99.90
40374;DHT22;26079;45.958;12.492;2023-09-30T02:45:02;15.20;99.90
40374;DHT22;26079;45.958;12.492;2023-09-30T02:47:28;15.20;99.90
40374;DHT22;26079;45.958;12.492;2023-09-30T02:49:56;15.20;99.90
40374;DHT22;26079;45.958;12.492;2023-09-30T02:52:22;15.30;99.90
40374;DHT22;26079;45.958;12.492;2023-09-30T02:54:48;15.40;99.90
40374;DHT22;26079;45.958;12.492;2023-09-30T02:57:14;15.40;99.90
40374;DHT22;26079;45.958;12.492;2023-09-30T02:59:41;15.30;99.90
40374;DHT22;26079;45.958;12.492;2023-09-30T03:02:06;15.20;99.90
40374;DHT22;26079;45.958;12.492;2023-09-30T03:04:32;15.20;99.90
40374;DHT22;26079;45.958;12.492;2023-09-30T03:06:58;15.10;99.90
40374;DHT22;26079;45.958;12.492;2023-09-30T03:09:24;15.00;99.90
40374;DHT22;26079;45.958;12.492;2023-09-30T03:11:50;15.00;99.90
40374;DHT22;26079;45.958;12.492;2023-09-30T03:14:15;15.00;99.90
40374;DHT22;26079;45.958;12.492;2023-09-30T03:16:41;15.00;99.90
40374;DHT22;26079;45.958;12.492;2023-09-30T03:19:08;15.00;99.90
40374;DHT22;26079;45.958;12.492;2023-09-30T03:21:37;15.00;99.90
40374;DHT22;26079;45.958;12.492;2023-09-30T03:24:04;15.10;99.90
40374;DHT22;26079;45.958;12.492;2023-09-30T03:26:30;15.10;99.90
40374;DHT22;26079;45.958;12.492;2023-09-30T03:28:56;15.10;99.90
40374;DHT22;26079;45.958;12.492;2023-09-30T03:31:24;15.20;99.90
40374;DHT22;26079;45.958;12.492;2023-09-30T03:33:50;15.20;99.90
40374;DHT22;26079;45.958;12.492;2023-09-30T03:36:23;15.20;99.90
40374;DHT22;26079;45.958;12.492;2023-09-30T03:38:50;15.20;99.90
40374;DHT22;26079;45.958;12.492;2023-09-30T03:41:18;15.30;99.90
40374;DHT22;26079;45.958;12.492;2023-09-30T03:43:44;15.30;99.90
40374;DHT22;26079;45.958;12.492;2023-09-30T03:46:10;15.30;99.90
40374;DHT22;26079;45.958;12.492;2023-09-30T03:48:38;15.40;99.90
40374;DHT22;26079;45.958;12.492;2023-09-30T03:51:15;15.30;99.90
40374;DHT22;26079;45.958;12.492;2023-09-30T03:53:44;15.30;99.90
40374;DHT22;26079;45.958;12.492;2023-09-30T03:56:10;15.30;99.90
40374;DHT22;26079;45.958;12.492;2023-09-30T03:58:40;15.30;99.90
40374;DHT22;26079;45.958;12.492;2023-09-30T04:01:07;15.40;99.90
40374;DHT22;26079;45.958;12.492;2023-09-30T04:03:33;15.40;99.90
40374;DHT22;26079;45.958;12.492;2023-09-30T04:06:01;15.40;99.90
40374;DHT22;26079;45.958;12.492;2023-09-30T04:08:28;15.40;99.90
40374;DHT22;26079;45.958;12.492;2023-09-30T04:10:54;15.40;99.90
40374;DHT22;26079;45.958;12.492;2023-09-30T04:13:20;15.40;99.90
40374;DHT22;26079;45.958;12.492;2023-09-30T04:15:47;15.40;99.90
40374;DHT22;26079;45.958;12.492;2023-09-30T04:18:13;15.40;99.90
40374;DHT22;26079;45.958;12.492;2023-09-30T04:20:38;15.40;99.90
40374;DHT22;26079;45.958;12.492;2023-09-30T04:23:06;15.40;99.90
40374;DHT22;26079;45.958;12.492;2023-09-30T04:25:32;15.40;99.90
40374;DHT22;26079;45.958;12.492;2023-09-30T04:27:58;15.40;99.90
40374;DHT22;26079;45.958;12.492;2023-09-30T04:30:24;15.40;99.90
40374;DHT22;26079;45.958;12.492;2023-09-30T04:32:49;15.40;99.90
40374;DHT22;26079;45.958;12.492;2023-09-30T04:35:15;15.40;99.90
40374;DHT22;26079;45.958;12.492;2023-09-30T04:37:41;15.40;99.90
40374;DHT22;26079;45.958;12.492;2023-09-30T04:40:10;15.40;99.90
40374;DHT22;26079;45.958;12.492;2023-09-30T04:42:48;15.30;99.90
40374;DHT22;26079;45.958;12.492;2023-09-30T04:45:14;15.30;99.90
40374;DHT22;26079;45.958;12.492;2023-09-30T04:47:45;15.30;99.90
40374;DHT22;26079;45.958;12.492;2023-09-30T04:50:11;15.30;99.90
40374;DHT22;26079;45.958;12.492;2023-09-30T04:52:42;15.30;99.90
40374;DHT22;26079;45.958;12.492;2023-09-30T04:55:08;15.30;99.90
40374;DHT22;26079;45.958;12.492;2023-09-30T04:57:34;15.30;99.90
40374;DHT22;26079;45.958;12.492;2023-09-30T05:00:00;15.40;99.90
40374;DHT22;26079;45.958;12.492;2023-09-30T05:02:27;15.40;99.90
40374;DHT22;26079;45.958;12.492;2023-09-30T05:04:53;15.40;99.90
40374;DHT22;26079;45.958;12.492;2023-09-30T05:07:20;15.30;99.90
40374;DHT22;26079;45.958;12.492;2023-09-30T05:09:47;15.20;99.90
40374;DHT22;26079;45.958;12.492;2023-09-30T05:12:13;15.10;99.90
40374;DHT22;26079;45.958;12.492;2023-09-30T05:14:39;15.00;99.90
40374;DHT22;26079;45.958;12.492;2023-09-30T05:17:05;14.90;99.90
40374;DHT22;26079;45.958;12.492;2023-09-30T05:19:31;14.90;99.90
40374;DHT22;26079;45.958;12.492;2023-09-30T05:21:59;14.90;99.90
40374;DHT22;26079;45.958;12.492;2023-09-30T05:24:28;14.90;99.90
40374;DHT22;26079;45.958;12.492;2023-09-30T05:26:54;15.00;99.90
40374;DHT22;26079;45.958;12.492;2023-09-30T05:29:20;15.10;99.90
40374;DHT22;26079;45.958;12.492;2023-09-30T05:31:46;15.20;99.90
40374;DHT22;26079;45.958;12.492;2023-09-30T05:34:12;15.30;99.90
40374;DHT22;26079;45.958;12.492;2023-09-30T05:36:38;15.40;99.90
40374;DHT22;26079;45.958;12.492;2023-09-30T05:39:04;15.40;99.90
40374;DHT22;26079;45.958;12.492;2023-09-30T05:41:31;15.30;99.90
40374;DHT22;26079;45.958;12.492;2023-09-30T05:43:56;15.30;99.90
40374;DHT22;26079;45.958;12.492;2023-09-30T05:46:24;15.30;99.90
40374;DHT22;26079;45.958;12.492;2023-09-30T05:48:50;15.30;99.90
40374;DHT22;26079;45.958;12.492;2023-09-30T05:51:15;15.30;99.90
40374;DHT22;26079;45.958;12.492;2023-09-30T05:53:42;15.30;99.90
40374;DHT22;26079;45.958;12.492;2023-09-30T05:56:08;15.40;99.90
40374;DHT22;26079;45.958;12.492;2023-09-30T05:58:36;15.40;99.90
40374;DHT22;26079;45.958;12.492;2023-09-30T06:01:08;15.50;99.90
40374;DHT22;26079;45.958;12.492;2023-09-30T06:03:36;15.60;99.90
40374;DHT22;26079;45.958;12.492;2023-09-30T06:06:15;15.70;99.90
40374;DHT22;26079;45.958;12.492;2023-09-30T06:08:42;15.80;99.90
40374;DHT22;26079;45.958;12.492;2023-09-30T06:11:20;15.90;99.90
40374;DHT22;26079;45.958;12.492;2023-09-30T06:13:51;16.00;99.90
40374;DHT22;26079;45.958;12.492;2023-09-30T06:16:18;16.20;99.90
40374;DHT22;26079;45.958;12.492;2023-09-30T06:18:44;16.30;99.90
40374;DHT22;26079;45.958;12.492;2023-09-30T06:21:11;16.40;99.90
40374;DHT22;26079;45.958;12.492;2023-09-30T06:23:37;16.60;99.90
40374;DHT22;26079;45.958;12.492;2023-09-30T06:26:03;16.80;99.90
40374;DHT22;26079;45.958;12.492;2023-09-30T06:28:29;16.90;98.90
40374;DHT22;26079;45.958;12.492;2023-09-30T06:30:57;17.10;98.60
40374;DHT22;26079;45.958;12.492;2023-09-30T06:33:23;17.30;99.90
40374;DHT22;26079;45.958;12.492;2023-09-30T06:35:49;17.50;99.60
40374;DHT22;26079;45.958;12.492;2023-09-30T06:38:20;17.60;97.90
40374;DHT22;26079;45.958;12.492;2023-09-30T06:40:47;17.70;98.10
40374;DHT22;26079;45.958;12.492;2023-09-30T06:43:16;17.70;98.30
40374;DHT22;26079;45.958;12.492;2023-09-30T06:45:45;17.70;98.20
40374;DHT22;26079;45.958;12.492;2023-09-30T06:48:12;17.70;98.70
40374;DHT22;26079;45.958;12.492;2023-09-30T06:50:46;17.80;99.00
40374;DHT22;26079;45.958;12.492;2023-09-30T06:53:14;17.80;98.70
40374;DHT22;26079;45.958;12.492;2023-09-30T06:55:40;17.90;98.80
40374;DHT22;26079;45.958;12.492;2023-09-30T06:58:06;17.90;98.80
40374;DHT22;26079;45.958;12.492;2023-09-30T07:00:33;17.90;98.10
40374;DHT22;26079;45.958;12.492;2023-09-30T07:03:00;18.00;97.70
40374;DHT22;26079;45.958;12.492;2023-09-30T07:05:26;18.10;96.80
40374;DHT22;26079;45.958;12.492;2023-09-30T07:07:53;18.10;97.70
40374;DHT22;26079;45.958;12.492;2023-09-30T07:10:19;18.20;98.20
40374;DHT22;26079;45.958;12.492;2023-09-30T07:12:45;18.20;97.40
40374;DHT22;26079;45.958;12.492;2023-09-30T07:15:10;18.30;97.50
40374;DHT22;26079;45.958;12.492;2023-09-30T07:17:36;18.40;97.40
40374;DHT22;26079;45.958;12.492;2023-09-30T07:20:03;18.50;95.70
40374;DHT22;26079;45.958;12.492;2023-09-30T07:22:30;18.60;94.60
40374;DHT22;26079;45.958;12.492;2023-09-30T07:24:57;18.60;93.70
40374;DHT22;26079;45.958;12.492;2023-09-30T07:27:23;18.60;93.50
40374;DHT22;26079;45.958;12.492;2023-09-30T07:29:50;18.60;93.70
40374;DHT22;26079;45.958;12.492;2023-09-30T07:32:16;18.60;93.90
40374;DHT22;26079;45.958;12.492;2023-09-30T07:34:42;18.70;93.60
40374;DHT22;26079;45.958;12.492;2023-09-30T07:37:08;18.80;92.90
40374;DHT22;26079;45.958;12.492;2023-09-30T07:39:34;18.90;93.40
40374;DHT22;26079;45.958;12.492;2023-09-30T07:42:00;19.00;92.60
40374;DHT22;26079;45.958;12.492;2023-09-30T07:44:26;19.30;92.50
40374;DHT22;26079;45.958;12.492;2023-09-30T07:46:52;19.40;92.40
40374;DHT22;26079;45.958;12.492;2023-09-30T07:49:18;19.50;91.60
40374;DHT22;26079;45.958;12.492;2023-09-30T07:51:44;19.90;90.80
40374;DHT22;26079;45.958;12.492;2023-09-30T07:54:11;20.10;90.50
40374;DHT22;26079;45.958;12.492;2023-09-30T07:56:37;20.20;90.40
40374;DHT22;26079;45.958;12.492;2023-09-30T07:59:04;20.20;91.20
40374;DHT22;26079;45.958;12.492;2023-09-30T08:01:33;20.30;90.20
40374;DHT22;26079;45.958;12.492;2023-09-30T08:03:59;20.40;91.10
40374;DHT22;26079;45.958;12.492;2023-09-30T08:06:24;20.40;91.00
40374;DHT22;26079;45.958;12.492;2023-09-30T08:08:50;20.40;90.70
40374;DHT22;26079;45.958;12.492;2023-09-30T08:11:18;20.30;90.40
40374;DHT22;26079;45.958;12.492;2023-09-30T08:13:43;20.30;91.20
40374;DHT22;26079;45.958;12.492;2023-09-30T08:16:09;20.50;90.90
40374;DHT22;26079;45.958;12.492;2023-09-30T08:18:35;20.60;90.60
40374;DHT22;26079;45.958;12.492;2023-09-30T08:21:00;20.70;90.60
40374;DHT22;26079;45.958;12.492;2023-09-30T08:23:26;20.80;90.50
40374;DHT22;26079;45.958;12.492;2023-09-30T08:25:52;20.90;90.80
40374;DHT22;26079;45.958;12.492;2023-09-30T08:28:19;21.00;90.20
40374;DHT22;26079;45.958;12.492;2023-09-30T08:30:44;21.30;89.70
40374;DHT22;26079;45.958;12.492;2023-09-30T08:33:10;21.70;89.00
40374;DHT22;26079;45.958;12.492;2023-09-30T08:35:39;22.10;87.60
40374;DHT22;26079;45.958;12.492;2023-09-30T08:38:05;22.60;85.90
40374;DHT22;26079;45.958;12.492;2023-09-30T08:40:31;23.00;84.10
40374;DHT22;26079;45.958;12.492;2023-09-30T08:42:57;23.40;81.10
40374;DHT22;26079;45.958;12.492;2023-09-30T08:45:23;23.50;80.00
40374;DHT22;26079;45.958;12.492;2023-09-30T08:47:50;23.70;78.70
40374;DHT22;26079;45.958;12.492;2023-09-30T08:50:16;23.90;76.80
40374;DHT22;26079;45.958;12.492;2023-09-30T08:52:44;24.00;75.30
40374;DHT22;26079;45.958;12.492;2023-09-30T08:55:11;24.00;77.20
40374;DHT22;26079;45.958;12.492;2023-09-30T08:57:38;24.10;76.60
40374;DHT22;26079;45.958;12.492;2023-09-30T09:00:08;24.10;76.70
40374;DHT22;26079;45.958;12.492;2023-09-30T09:02:37;24.10;76.40
40374;DHT22;26079;45.958;12.492;2023-09-30T09:05:03;24.20;78.10
40374;DHT22;26079;45.958;12.492;2023-09-30T09:07:29;24.30;78.60
40374;DHT22;26079;45.958;12.492;2023-09-30T09:10:10;24.50;75.40
40374;DHT22;26079;45.958;12.492;2023-09-30T09:12:38;24.40;75.10
40374;DHT22;26079;45.958;12.492;2023-09-30T09:15:19;24.50;75.70
40374;DHT22;26079;45.958;12.492;2023-09-30T09:17:45;24.40;76.20
40374;DHT22;26079;45.958;12.492;2023-09-30T09:20:16;24.30;76.00
40374;DHT22;26079;45.958;12.492;2023-09-30T09:22:47;24.20;75.30
40374;DHT22;26079;45.958;12.492;2023-09-30T09:25:13;24.10;74.70
40374;DHT22;26079;45.958;12.492;2023-09-30T09:27:38;24.10;74.70
40374;DHT22;26079;45.958;12.492;2023-09-30T09:30:24;24.10;74.20
40374;DHT22;26079;45.958;12.492;2023-09-30T09:33:10;24.10;73.80
40374;DHT22;26079;45.958;12.492;2023-09-30T09:35:36;24.20;75.30
40374;DHT22;26079;45.958;12.492;2023-09-30T09:38:04;24.40;73.90
40374;DHT22;26079;45.958;12.492;2023-09-30T09:40:31;24.40;73.40
40374;DHT22;26079;45.958;12.492;2023-09-30T09:42:58;24.40;73.20
40374;DHT22;26079;45.958;12.492;2023-09-30T09:45:26;24.50;73.90
40374;DHT22;26079;45.958;12.492;2023-09-30T09:47:53;24.40;73.60
40374;DHT22;26079;45.958;12.492;2023-09-30T09:50:20;24.30;73.70
40374;DHT22;26079;45.958;12.492;2023-09-30T09:52:54;24.30;72.30
40374;DHT22;26079;45.958;12.492;2023-09-30T09:55:24;24.40;71.50
40374;DHT22;26079;45.958;12.492;2023-09-30T09:57:50;24.60;73.30
40374;DHT22;26079;45.958;12.492;2023-09-30T10:00:18;24.70;72.90
40374;DHT22;26079;45.958;12.492;2023-09-30T10:02:45;24.80;71.10
40374;DHT22;26079;45.958;12.492;2023-09-30T10:05:15;25.00;72.70
40374;DHT22;26079;45.958;12.492;2023-09-30T10:10:20;25.10;71.10
40374;DHT22;26079;45.958;12.492;2023-09-30T10:12:46;25.20;69.20
40374;DHT22;26079;45.958;12.492;2023-09-30T10:18:04;25.30;71.00
40374;DHT22;26079;45.958;12.492;2023-09-30T10:20:31;25.20;71.50
40374;DHT22;26079;45.958;12.492;2023-09-30T10:23:20;25.20;71.70
40374;DHT22;26079;45.958;12.492;2023-09-30T10:25:46;25.20;73.10
40374;DHT22;26079;45.958;12.492;2023-09-30T10:28:38;25.20;73.40
40374;DHT22;26079;45.958;12.492;2023-09-30T10:33:35;25.20;72.80
40374;DHT22;26079;45.958;12.492;2023-09-30T10:36:01;25.10;72.40
40374;DHT22;26079;45.958;12.492;2023-09-30T10:41:00;25.10;72.50
40374;DHT22;26079;45.958;12.492;2023-09-30T10:45:56;25.20;70.70
40374;DHT22;26079;45.958;12.492;2023-09-30T10:50:55;25.20;70.90
40374;DHT22;26079;45.958;12.492;2023-09-30T10:53:22;25.20;71.10
40374;DHT22;26079;45.958;12.492;2023-09-30T10:55:56;25.20;73.20
40374;DHT22;26079;45.958;12.492;2023-09-30T10:58:48;25.30;72.90
40374;DHT22;26079;45.958;12.492;2023-09-30T11:01:16;25.30;70.70
40374;DHT22;26079;45.958;12.492;2023-09-30T11:03:43;25.20;70.30
40374;DHT22;26079;45.958;12.492;2023-09-30T11:06:13;25.30;71.40
40374;DHT22;26079;45.958;12.492;2023-09-30T11:08:45;25.30;70.90
40374;DHT22;26079;45.958;12.492;2023-09-30T11:11:12;25.20;73.50
40374;DHT22;26079;45.958;12.492;2023-09-30T11:13:39;25.20;69.90
40374;DHT22;26079;45.958;12.492;2023-09-30T11:16:06;25.10;68.70
40374;DHT22;26079;45.958;12.492;2023-09-30T11:18:32;25.00;68.80
40374;DHT22;26079;45.958;12.492;2023-09-30T11:21:05;25.10;69.90
40374;DHT22;26079;45.958;12.492;2023-09-30T11:23:31;25.00;72.00
40374;DHT22;26079;45.958;12.492;2023-09-30T11:25:57;25.10;72.70
40374;DHT22;26079;45.958;12.492;2023-09-30T11:28:24;25.10;71.20
40374;DHT22;26079;45.958;12.492;2023-09-30T11:30:58;25.10;71.10
40374;DHT22;26079;45.958;12.492;2023-09-30T11:33:25;25.20;72.80
40374;DHT22;26079;45.958;12.492;2023-09-30T11:36:00;25.40;73.70
40374;DHT22;26079;45.958;12.492;2023-09-30T11:38:27;25.40;72.90
40374;DHT22;26079;45.958;12.492;2023-09-30T11:41:04;25.40;69.50
40374;DHT22;26079;45.958;12.492;2023-09-30T11:43:33;25.40;71.10
40374;DHT22;26079;45.958;12.492;2023-09-30T11:46:10;25.60;69.10
40374;DHT22;26079;45.958;12.492;2023-09-30T11:48:56;25.70;70.90
40374;DHT22;26079;45.958;12.492;2023-09-30T11:51:22;25.90;67.80
40374;DHT22;26079;45.958;12.492;2023-09-30T11:53:52;25.90;69.80
40374;DHT22;26079;45.958;12.492;2023-09-30T11:56:23;25.90;68.90
40374;DHT22;26079;45.958;12.492;2023-09-30T11:58:55;25.80;68.90
40374;DHT22;26079;45.958;12.492;2023-09-30T12:01:21;25.70;67.90
40374;DHT22;26079;45.958;12.492;2023-09-30T12:03:48;25.80;68.00
40374;DHT22;26079;45.958;12.492;2023-09-30T12:06:14;25.90;68.30
40374;DHT22;26079;45.958;12.492;2023-09-30T12:08:42;26.00;68.10
40374;DHT22;26079;45.958;12.492;2023-09-30T12:11:08;26.10;67.60
40374;DHT22;26079;45.958;12.492;2023-09-30T12:13:34;26.20;66.80
40374;DHT22;26079;45.958;12.492;2023-09-30T12:15:59;26.20;67.00
40374;DHT22;26079;45.958;12.492;2023-09-30T12:18:25;26.20;68.50
40374;DHT22;26079;45.958;12.492;2023-09-30T12:20:52;26.20;67.80
40374;DHT22;26079;45.958;12.492;2023-09-30T12:23:20;26.20;67.60
40374;DHT22;26079;45.958;12.492;2023-09-30T12:25:47;26.00;67.00
40374;DHT22;26079;45.958;12.492;2023-09-30T12:28:13;26.20;66.70
40374;DHT22;26079;45.958;12.492;2023-09-30T12:30:43;26.20;68.20
40374;DHT22;26079;45.958;12.492;2023-09-30T12:33:09;26.30;67.90
40374;DHT22;26079;45.958;12.492;2023-09-30T12:35:37;26.20;68.20
40374;DHT22;26079;45.958;12.492;2023-09-30T12:38:03;26.30;66.60
40374;DHT22;26079;45.958;12.492;2023-09-30T12:40:28;26.20;68.50
40374;DHT22;26079;45.958;12.492;2023-09-30T12:42:55;26.20;68.90
40374;DHT22;26079;45.958;12.492;2023-09-30T12:45:21;26.20;68.90
40374;DHT22;26079;45.958;12.492;2023-09-30T12:47:46;26.20;66.70
40374;DHT22;26079;45.958;12.492;2023-09-30T12:50:13;26.10;66.70
40374;DHT22;26079;45.958;12.492;2023-09-30T12:52:39;26.20;66.20
40374;DHT22;26079;45.958;12.492;2023-09-30T12:55:05;26.30;66.60
40374;DHT22;26079;45.958;12.492;2023-09-30T12:57:31;26.30;66.90
40374;DHT22;26079;45.958;12.492;2023-09-30T12:59:57;26.40;66.80
40374;DHT22;26079;45.958;12.492;2023-09-30T13:02:23;26.40;65.20
40374;DHT22;26079;45.958;12.492;2023-09-30T13:04:49;26.50;64.40
40374;DHT22;26079;45.958;12.492;2023-09-30T13:07:15;26.50;64.50
40374;DHT22;26079;45.958;12.492;2023-09-30T13:09:41;26.50;65.40
40374;DHT22;26079;45.958;12.492;2023-09-30T13:12:07;26.40;67.80
40374;DHT22;26079;45.958;12.492;2023-09-30T13:14:33;26.30;67.70
40374;DHT22;26079;45.958;12.492;2023-09-30T13:16:59;26.20;68.20
40374;DHT22;26079;45.958;12.492;2023-09-30T13:19:26;26.20;66.50
40374;DHT22;26079;45.958;12.492;2023-09-30T13:21:52;26.30;65.70
40374;DHT22;26079;45.958;12.492;2023-09-30T13:24:22;26.30;66.00
40374;DHT22;26079;45.958;12.492;2023-09-30T13:26:48;26.40;64.90
40374;DHT22;26079;45.958;12.492;2023-09-30T13:29:15;26.40;65.70
40374;DHT22;26079;45.958;12.492;2023-09-30T13:31:42;26.30;66.00
40374;DHT22;26079;45.958;12.492;2023-09-30T13:34:08;26.20;66.10
40374;DHT22;26079;45.958;12.492;2023-09-30T13:36:34;26.00;69.10
40374;DHT22;26079;45.958;12.492;2023-09-30T13:39:03;25.90;67.80
40374;DHT22;26079;45.958;12.492;2023-09-30T13:41:34;25.90;68.80
40374;DHT22;26079;45.958;12.492;2023-09-30T13:44:02;25.70;70.80
40374;DHT22;26079;45.958;12.492;2023-09-30T13:46:28;25.60;72.00
40374;DHT22;26079;45.958;12.492;2023-09-30T13:48:54;25.50;69.10
40374;DHT22;26079;45.958;12.492;2023-09-30T13:51:20;25.70;68.20
40374;DHT22;26079;45.958;12.492;2023-09-30T13:53:46;25.80;69.30
40374;DHT22;26079;45.958;12.492;2023-09-30T13:56:12;25.90;66.70
40374;DHT22;26079;45.958;12.492;2023-09-30T13:58:37;26.10;67.00
40374;DHT22;26079;45.958;12.492;2023-09-30T14:01:03;26.20;66.30
40374;DHT22;26079;45.958;12.492;2023-09-30T14:03:29;26.30;65.50
40374;DHT22;26079;45.958;12.492;2023-09-30T14:05:55;26.30;67.70
40374;DHT22;26079;45.958;12.492;2023-09-30T14:08:24;26.30;66.80
40374;DHT22;26079;45.958;12.492;2023-09-30T14:10:50;26.30;66.30
40374;DHT22;26079;45.958;12.492;2023-09-30T14:13:19;26.30;67.30
40374;DHT22;26079;45.958;12.492;2023-09-30T14:15:45;26.30;70.00
40374;DHT22;26079;45.958;12.492;2023-09-30T14:18:12;26.20;67.10
40374;DHT22;26079;45.958;12.492;2023-09-30T14:20:38;26.20;68.30
40374;DHT22;26079;45.958;12.492;2023-09-30T14:23:03;26.20;67.30
40374;DHT22;26079;45.958;12.492;2023-09-30T14:25:29;26.20;70.00
40374;DHT22;26079;45.958;12.492;2023-09-30T14:27:55;26.10;68.30
40374;DHT22;26079;45.958;12.492;2023-09-30T14:30:22;26.10;68.00
40374;DHT22;26079;45.958;12.492;2023-09-30T14:32:47;26.20;68.00
40374;DHT22;26079;45.958;12.492;2023-09-30T14:35:13;26.30;65.80
40374;DHT22;26079;45.958;12.492;2023-09-30T14:37:39;26.40;64.90
40374;DHT22;26079;45.958;12.492;2023-09-30T14:40:06;26.40;67.90
40374;DHT22;26079;45.958;12.492;2023-09-30T14:42:39;26.40;68.40
40374;DHT22;26079;45.958;12.492;2023-09-30T14:45:08;26.40;67.40
40374;DHT22;26079;45.958;12.492;2023-09-30T14:47:34;26.40;67.90
40374;DHT22;26079;45.958;12.492;2023-09-30T14:49:59;26.50;67.80
40374;DHT22;26079;45.958;12.492;2023-09-30T14:52:28;26.70;65.80
40374;DHT22;26079;45.958;12.492;2023-09-30T14:54:54;26.90;65.00
40374;DHT22;26079;45.958;12.492;2023-09-30T14:57:20;26.80;65.50
40374;DHT22;26079;45.958;12.492;2023-09-30T14:59:47;26.80;65.00
40374;DHT22;26079;45.958;12.492;2023-09-30T15:02:13;26.80;69.50
40374;DHT22;26079;45.958;12.492;2023-09-30T15:04:39;26.70;68.70
40374;DHT22;26079;45.958;12.492;2023-09-30T15:07:05;26.60;67.90
40374;DHT22;26079;45.958;12.492;2023-09-30T15:09:31;26.40;68.30
40374;DHT22;26079;45.958;12.492;2023-09-30T15:11:57;26.20;69.90
40374;DHT22;26079;45.958;12.492;2023-09-30T15:14:23;26.00;70.20
40374;DHT22;26079;45.958;12.492;2023-09-30T15:16:49;25.90;68.50
40374;DHT22;26079;45.958;12.492;2023-09-30T15:19:15;25.90;69.50
40374;DHT22;26079;45.958;12.492;2023-09-30T15:21:40;25.80;69.30
40374;DHT22;26079;45.958;12.492;2023-09-30T15:24:07;25.60;70.90
40374;DHT22;26079;45.958;12.492;2023-09-30T15:26:33;25.50;71.60
40374;DHT22;26079;45.958;12.492;2023-09-30T15:29:00;25.40;71.20
40374;DHT22;26079;45.958;12.492;2023-09-30T15:31:30;25.30;73.30